sensor_id;sensor_type;location;lat;lon;timestamp;temperature;humidity
336;DHT22;156;48.738;9.228;2023-09-19T00:01:01;16.10;99.90
336;DHT22;156;48.738;9.228;2023-09-19T00:03:31;16.10;99.90
336;DHT22;156;48.738;9.228;2023-09-19T00:06:03;16.10;99.90
336;DHT22;156;48.738;9.228;2023-09-19T00:08:33;16.10;99.90
336;DHT22;156;48.738;9.228;2023-09-19T00:11:03;16.10;99.90
336;DHT22;156;48.738;9.228;2023-09-19T00:13:31;16.00;99.90
336;DHT22;156;48.738;9.228;2023-09-19T00:15:59;16.10;99.90
336;DHT22;156;48.738;9.228;2023-09-19T00:18:28;16.00;99.90
336;DHT22;156;48.738;9.228;2023-09-19T00:20:58;15.90;99.90
336;DHT22;156;48.738;9.228;2023-09-19T00:23:26;15.90;99.90
336;DHT22;156;48.738;9.228;2023-09-19T00:25:54;15.90;99.90
336;DHT22;156;48.738;9.228;2023-09-19T00:28:26;15.80;99.90
336;DHT22;156;48.738;9.228;2023-09-19T00:30:53;15.80;99.90
336;DHT22;156;48.738;9.228;2023-09-19T00:33:21;15.80;99.90
336;DHT22;156;48.738;9.228;2023-09-19T00:35:48;15.80;99.90
336;DHT22;156;48.738;9.228;2023-09-19T00:38:15;15.90;99.90
336;DHT22;156;48.738;9.228;2023-09-19T00:40:45;15.90;99.90
336;DHT22;156;48.738;9.228;2023-09-19T00:43:12;15.90;99.90
336;DHT22;156;48.738;9.228;2023-09-19T00:45:42;15.90;99.90
336;DHT22;156;48.738;9.228;2023-09-19T00:48:12;15.80;99.90
336;DHT22;156;48.738;9.228;2023-09-19T00:50:41;15.80;99.90
336;DHT22;156;48.738;9.228;2023-09-19T00:53:09;15.90;99.90
336;DHT22;156;48.738;9.228;2023-09-19T00:55:41;15.90;99.90
336;DHT22;156;48.738;9.228;2023-09-19T00:58:11;15.90;99.90
336;DHT22;156;48.738;9.228;2023-09-19T01:00:38;15.80;99.90
336;DHT22;156;48.738;9.228;2023-09-19T01:03:05;15.80;99.90
336;DHT22;156;48.738;9.228;2023-09-19T01:05:33;15.80;99.90
336;DHT22;156;48.738;9.228;2023-09-19T01:08:01;15.80;99.90
336;DHT22;156;48.738;9.228;2023-09-19T01:10:32;15.90;99.90
336;DHT22;156;48.738;9.228;2023-09-19T01:13:04;15.80;99.90
336;DHT22;156;48.738;9.228;2023-09-19T01:15:44;15.90;99.90
336;DHT22;156;48.738;9.228;2023-09-19T01:18:25;15.90;99.90
336;DHT22;156;48.738;9.228;2023-09-19T01:21:00;15.90;99.90
336;DHT22;156;48.738;9.228;2023-09-19T01:23:41;15.90;99.90
336;DHT22;156;48.738;9.228;2023-09-19T01:26:22;15.90;99.90
336;DHT22;156;48.738;9.228;2023-09-19T01:29:13;15.90;99.90
336;DHT22;156;48.738;9.228;2023-09-19T01:31:48;16.00;99.90
336;DHT22;156;48.738;9.228;2023-09-19T01:34:15;16.00;99.90
336;DHT22;156;48.738;9.228;2023-09-19T01:36:45;16.00;99.90
336;DHT22;156;48.738;9.228;2023-09-19T01:39:13;16.00;98.70
336;DHT22;156;48.738;9.228;2023-09-19T01:42:03;16.10;95.90
336;DHT22;156;48.738;9.228;2023-09-19T01:44:44;16.00;97.40
336;DHT22;156;48.738;9.228;2023-09-19T01:47:26;16.00;98.60
336;DHT22;156;48.738;9.228;2023-09-19T01:50:07;16.00;99.90
336;DHT22;156;48.738;9.228;2023-09-19T01:52:46;16.00;99.90
336;DHT22;156;48.738;9.228;2023-09-19T01:56:36;16.00;98.50
336;DHT22;156;48.738;9.228;2023-09-19T02:02:02;16.00;98.70
336;DHT22;156;48.738;9.228;2023-09-19T02:04:35;16.00;99.90
336;DHT22;156;48.738;9.228;2023-09-19T02:07:22;15.90;95.20
336;DHT22;156;48.738;9.228;2023-09-19T02:17:21;16.00;94.00
336;DHT22;156;48.738;9.228;2023-09-19T03:03:34;16.00;99.90
336;DHT22;156;48.738;9.228;2023-09-19T03:06:10;15.90;99.90
336;DHT22;156;48.738;9.228;2023-09-19T03:08:41;15.90;99.90
336;DHT22;156;48.738;9.228;2023-09-19T03:11:22;15.80;99.90
336;DHT22;156;48.738;9.228;2023-09-19T03:13:53;15.90;99.90
336;DHT22;156;48.738;9.228;2023-09-19T03:16:20;15.90;99.90
336;DHT22;156;48.738;9.228;2023-09-19T03:18:52;15.90;99.90
336;DHT22;156;48.738;9.228;2023-09-19T03:21:19;15.90;99.90
336;DHT22;156;48.738;9.228;2023-09-19T03:23:47;15.90;99.90
336;DHT22;156;48.738;9.228;2023-09-19T03:26:16;15.90;99.90
336;DHT22;156;48.738;9.228;2023-09-19T03:28:46;15.80;99.90
336;DHT22;156;48.738;9.228;2023-09-19T03:31:13;15.80;99.90
336;DHT22;156;48.738;9.228;2023-09-19T03:33:40;15.80;99.90
336;DHT22;156;48.738;9.228;2023-09-19T03:36:12;15.80;99.90
336;DHT22;156;48.738;9.228;2023-09-19T03:38:40;15.80;99.90
336;DHT22;156;48.738;9.228;2023-09-19T03:41:07;15.80;99.90
336;DHT22;156;48.738;9.228;2023-09-19T03:43:36;15.70;99.90
336;DHT22;156;48.738;9.228;2023-09-19T03:46:06;15.70;99.90
336;DHT22;156;48.738;9.228;2023-09-19T03:48:34;15.70;99.90
336;DHT22;156;48.738;9.228;2023-09-19T03:51:01;15.70;99.90
336;DHT22;156;48.738;9.228;2023-09-19T03:53:30;15.60;99.90
336;DHT22;156;48.738;9.228;2023-09-19T03:55:57;15.70;99.90
336;DHT22;156;48.738;9.228;2023-09-19T03:58:27;15.60;99.90
336;DHT22;156;48.738;9.228;2023-09-19T04:00:55;15.60;99.90
336;DHT22;156;48.738;9.228;2023-09-19T04:03:23;15.60;99.90
336;DHT22;156;48.738;9.228;2023-09-19T04:06:00;15.60;99.90
336;DHT22;156;48.738;9.228;2023-09-19T04:08:38;15.70;99.90
336;DHT22;156;48.738;9.228;2023-09-19T04:11:15;15.70;99.90
336;DHT22;156;48.738;9.228;2023-09-19T04:13:47;15.60;99.90
336;DHT22;156;48.738;9.228;2023-09-19T04:16:14;15.60;99.90
336;DHT22;156;48.738;9.228;2023-09-19T04:18:42;15.50;99.90
336;DHT22;156;48.738;9.228;2023-09-19T04:21:15;15.50;99.90
336;DHT22;156;48.738;9.228;2023-09-19T04:23:44;15.50;99.90
336;DHT22;156;48.738;9.228;2023-09-19T04:26:12;15.50;99.90
336;DHT22;156;48.738;9.228;2023-09-19T04:28:42;15.50;99.90
336;DHT22;156;48.738;9.228;2023-09-19T04:31:12;15.50;99.90
336;DHT22;156;48.738;9.228;2023-09-19T04:44:17;15.70;99.90
336;DHT22;156;48.738;9.228;2023-09-19T04:51:20;15.80;99.90
336;DHT22;156;48.738;9.228;2023-09-19T04:54:21;15.70;99.90
336;DHT22;156;48.738;9.228;2023-09-19T04:56:48;15.70;99.90
336;DHT22;156;48.738;9.228;2023-09-19T04:59:19;15.80;99.90
336;DHT22;156;48.738;9.228;2023-09-19T05:01:46;15.80;99.90
336;DHT22;156;48.738;9.228;2023-09-19T05:04:13;15.80;99.90
336;DHT22;156;48.738;9.228;2023-09-19T05:06:40;15.80;99.90
336;DHT22;156;48.738;9.228;2023-09-19T05:09:07;15.90;99.90
336;DHT22;156;48.738;9.228;2023-09-19T05:11:37;15.90;99.90
336;DHT22;156;48.738;9.228;2023-09-19T05:14:06;15.90;99.90
336;DHT22;156;48.738;9.228;2023-09-19T05:16:43;15.90;99.90
336;DHT22;156;48.738;9.228;2023-09-19T05:19:13;15.90;99.90
336;DHT22;156;48.738;9.228;2023-09-19T05:21:39;15.90;99.90
336;DHT22;156;48.738;9.228;2023-09-19T05:24:07;15.80;99.90
336;DHT22;156;48.738;9.228;2023-09-19T05:26:34;15.70;99.90
336;DHT22;156;48.738;9.228;2023-09-19T05:29:02;15.70;99.90
336;DHT22;156;48.738;9.228;2023-09-19T05:31:36;15.70;99.90
336;DHT22;156;48.738;9.228;2023-09-19T05:34:09;15.60;99.90
336;DHT22;156;48.738;9.228;2023-09-19T05:36:43;15.50;99.90
336;DHT22;156;48.738;9.228;2023-09-19T05:39:10;15.50;99.90
336;DHT22;156;48.738;9.228;2023-09-19T05:41:46;15.40;99.90
336;DHT22;156;48.738;9.228;2023-09-19T05:44:23;15.30;99.90
336;DHT22;156;48.738;9.228;2023-09-19T05:46:53;15.30;99.90
336;DHT22;156;48.738;9.228;2023-09-19T05:49:22;15.30;99.90
336;DHT22;156;48.738;9.228;2023-09-19T05:51:56;15.40;99.90
336;DHT22;156;48.738;9.228;2023-09-19T05:54:24;15.40;99.90
336;DHT22;156;48.738;9.228;2023-09-19T05:56:51;15.50;99.90
336;DHT22;156;48.738;9.228;2023-09-19T05:59:19;15.50;99.90
336;DHT22;156;48.738;9.228;2023-09-19T06:01:45;15.50;99.90
336;DHT22;156;48.738;9.228;2023-09-19T06:04:14;15.50;99.90
336;DHT22;156;48.738;9.228;2023-09-19T06:06:44;15.50;99.90
336;DHT22;156;48.738;9.228;2023-09-19T06:09:12;15.50;99.90
336;DHT22;156;48.738;9.228;2023-09-19T06:11:41;15.50;99.90
336;DHT22;156;48.738;9.228;2023-09-19T06:14:08;15.20;99.90
336;DHT22;156;48.738;9.228;2023-09-19T06:16:36;15.00;99.90
336;DHT22;156;48.738;9.228;2023-09-19T06:19:03;14.90;99.90
336;DHT22;156;48.738;9.228;2023-09-19T06:21:33;14.80;99.90
336;DHT22;156;48.738;9.228;2023-09-19T06:24:00;14.80;99.90
336;DHT22;156;48.738;9.228;2023-09-19T06:26:27;14.80;99.90
336;DHT22;156;48.738;9.228;2023-09-19T06:28:55;14.80;99.90
336;DHT22;156;48.738;9.228;2023-09-19T06:31:21;14.70;99.90
336;DHT22;156;48.738;9.228;2023-09-19T06:33:51;14.70;99.90
336;DHT22;156;48.738;9.228;2023-09-19T06:36:18;14.70;99.90
336;DHT22;156;48.738;9.228;2023-09-19T06:38:47;14.70;99.90
336;DHT22;156;48.738;9.228;2023-09-19T06:41:17;14.70;99.90
336;DHT22;156;48.738;9.228;2023-09-19T06:43:44;14.80;99.90
336;DHT22;156;48.738;9.228;2023-09-19T06:46:11;14.80;99.90
336;DHT22;156;48.738;9.228;2023-09-19T06:48:38;14.80;99.90
336;DHT22;156;48.738;9.228;2023-09-19T06:51:06;14.90;99.90
336;DHT22;156;48.738;9.228;2023-09-19T06:53:34;14.80;99.90
336;DHT22;156;48.738;9.228;2023-09-19T06:56:03;14.80;99.90
336;DHT22;156;48.738;9.228;2023-09-19T06:58:30;14.70;99.90
336;DHT22;156;48.738;9.228;2023-09-19T07:00:58;14.80;99.90
336;DHT22;156;48.738;9.228;2023-09-19T07:03:25;14.80;99.90
336;DHT22;156;48.738;9.228;2023-09-19T07:05:54;14.80;99.90
336;DHT22;156;48.738;9.228;2023-09-19T07:08:21;14.90;99.90
336;DHT22;156;48.738;9.228;2023-09-19T07:10:48;15.00;99.90
336;DHT22;156;48.738;9.228;2023-09-19T07:13:19;15.00;99.90
336;DHT22;156;48.738;9.228;2023-09-19T07:15:46;15.00;99.90
336;DHT22;156;48.738;9.228;2023-09-19T07:18:15;15.10;99.90
336;DHT22;156;48.738;9.228;2023-09-19T07:20:43;15.10;99.90
336;DHT22;156;48.738;9.228;2023-09-19T07:23:15;15.30;99.90
336;DHT22;156;48.738;9.228;2023-09-19T07:25:44;15.30;99.90
336;DHT22;156;48.738;9.228;2023-09-19T07:28:12;15.50;99.90
336;DHT22;156;48.738;9.228;2023-09-19T07:30:40;15.50;99.90
336;DHT22;156;48.738;9.228;2023-09-19T07:33:08;15.50;99.90
336;DHT22;156;48.738;9.228;2023-09-19T07:35:36;15.70;99.90
336;DHT22;156;48.738;9.228;2023-09-19T07:38:05;15.60;99.90
336;DHT22;156;48.738;9.228;2023-09-19T07:40:32;15.80;99.90
336;DHT22;156;48.738;9.228;2023-09-19T07:42:59;15.90;99.90
336;DHT22;156;48.738;9.228;2023-09-19T07:45:27;16.00;99.90
336;DHT22;156;48.738;9.228;2023-09-19T07:47:57;16.10;99.90
336;DHT22;156;48.738;9.228;2023-09-19T07:50:25;16.10;98.50
336;DHT22;156;48.738;9.228;2023-09-19T07:52:52;16.10;99.90
336;DHT22;156;48.738;9.228;2023-09-19T07:55:22;16.20;99.90
336;DHT22;156;48.738;9.228;2023-09-19T07:57:51;16.20;99.90
336;DHT22;156;48.738;9.228;2023-09-19T08:00:18;16.20;84.80
336;DHT22;156;48.738;9.228;2023-09-19T08:03:01;16.20;91.70
336;DHT22;156;48.738;9.228;2023-09-19T08:05:29;16.30;99.90
336;DHT22;156;48.738;9.228;2023-09-19T08:08:01;16.30;79.10
336;DHT22;156;48.738;9.228;2023-09-19T08:10:28;16.40;95.90
336;DHT22;156;48.738;9.228;2023-09-19T08:13:00;16.50;71.40
336;DHT22;156;48.738;9.228;2023-09-19T08:15:43;16.60;92.40
336;DHT22;156;48.738;9.228;2023-09-19T08:18:12;16.60;85.60
336;DHT22;156;48.738;9.228;2023-09-19T08:20:39;16.70;62.90
336;DHT22;156;48.738;9.228;2023-09-19T08:23:08;16.80;79.60
336;DHT22;156;48.738;9.228;2023-09-19T08:25:35;16.70;32.10
336;DHT22;156;48.738;9.228;2023-09-19T08:28:04;16.90;44.60
336;DHT22;156;48.738;9.228;2023-09-19T08:30:49;16.90;21.20
336;DHT22;156;48.738;9.228;2023-09-19T08:33:18;16.90;1.00
336;DHT22;156;48.738;9.228;2023-09-19T08:35:45;16.90;1.00
336;DHT22;156;48.738;9.228;2023-09-19T08:38:12;17.00;1.00
336;DHT22;156;48.738;9.228;2023-09-19T08:40:40;17.00;1.00
336;DHT22;156;48.738;9.228;2023-09-19T08:43:08;17.20;1.00
336;DHT22;156;48.738;9.228;2023-09-19T08:45:35;17.40;1.00
336;DHT22;156;48.738;9.228;2023-09-19T08:48:16;17.50;1.00
336;DHT22;156;48.738;9.228;2023-09-19T08:50:50;17.30;1.00
336;DHT22;156;48.738;9.228;2023-09-19T08:53:27;17.40;1.00
336;DHT22;156;48.738;9.228;2023-09-19T08:55:59;17.40;1.00
336;DHT22;156;48.738;9.228;2023-09-19T08:58:31;17.30;1.00
336;DHT22;156;48.738;9.228;2023-09-19T09:01:00;17.40;1.00
336;DHT22;156;48.738;9.228;2023-09-19T09:03:33;17.30;1.00
336;DHT22;156;48.738;9.228;2023-09-19T09:06:02;17.50;1.00
336;DHT22;156;48.738;9.228;2023-09-19T09:08:31;17.70;1.00
336;DHT22;156;48.738;9.228;2023-09-19T09:10:59;17.70;1.00
336;DHT22;156;48.738;9.228;2023-09-19T09:13:29;17.50;1.00
336;DHT22;156;48.738;9.228;2023-09-19T09:15:58;17.80;1.00
336;DHT22;156;48.738;9.228;2023-09-19T09:18:25;17.90;1.00
336;DHT22;156;48.738;9.228;2023-09-19T09:20:52;18.00;1.00
336;DHT22;156;48.738;9.228;2023-09-19T09:23:22;18.10;1.00
336;DHT22;156;48.738;9.228;2023-09-19T09:25:52;18.10;1.00
336;DHT22;156;48.738;9.228;2023-09-19T09:28:23;18.10;1.00
336;DHT22;156;48.738;9.228;2023-09-19T09:30:51;18.00;99.90
336;DHT22;156;48.738;9.228;2023-09-19T09:33:18;17.90;99.90
336;DHT22;156;48.738;9.228;2023-09-19T09:35:51;17.80;99.90
336;DHT22;156;48.738;9.228;2023-09-19T09:38:24;17.90;99.90
336;DHT22;156;48.738;9.228;2023-09-19T09:40:58;18.10;99.90
336;DHT22;156;48.738;9.228;2023-09-19T09:43:33;18.10;99.90
336;DHT22;156;48.738;9.228;2023-09-19T09:46:12;18.10;99.90
336;DHT22;156;48.738;9.228;2023-09-19T09:49:00;18.10;99.90
336;DHT22;156;48.738;9.228;2023-09-19T09:51:59;18.00;99.90
336;DHT22;156;48.738;9.228;2023-09-19T09:54:29;18.20;7.90
336;DHT22;156;48.738;9.228;2023-09-19T09:57:03;18.00;1.00
336;DHT22;156;48.738;9.228;2023-09-19T09:59:49;18.10;1.00
336;DHT22;156;48.738;9.228;2023-09-19T10:02:19;18.20;1.00
336;DHT22;156;48.738;9.228;2023-09-19T10:04:54;18.30;1.00
336;DHT22;156;48.738;9.228;2023-09-19T10:07:34;18.50;1.00
336;DHT22;156;48.738;9.228;2023-09-19T10:10:08;18.60;1.00
336;DHT22;156;48.738;9.228;2023-09-19T10:12:44;18.70;1.00
336;DHT22;156;48.738;9.228;2023-09-19T10:15:15;19.00;99.90
336;DHT22;156;48.738;9.228;2023-09-19T10:17:43;19.00;99.90
336;DHT22;156;48.738;9.228;2023-09-19T10:20:16;18.90;99.90
336;DHT22;156;48.738;9.228;2023-09-19T10:23:06;18.90;99.90
336;DHT22;156;48.738;9.228;2023-09-19T10:25:40;19.20;99.90
336;DHT22;156;48.738;9.228;2023-09-19T10:28:08;19.20;1.00
336;DHT22;156;48.738;9.228;2023-09-19T10:30:38;19.30;1.00
336;DHT22;156;48.738;9.228;2023-09-19T10:33:09;19.10;1.00
336;DHT22;156;48.738;9.228;2023-09-19T10:35:38;19.20;1.00
336;DHT22;156;48.738;9.228;2023-09-19T10:38:07;19.40;1.00
336;DHT22;156;48.738;9.228;2023-09-19T10:40:37;19.40;1.00
336;DHT22;156;48.738;9.228;2023-09-19T10:43:12;19.60;1.00
336;DHT22;156;48.738;9.228;2023-09-19T10:45:41;19.50;1.00
336;DHT22;156;48.738;9.228;2023-09-19T10:48:10;19.30;1.00
336;DHT22;156;48.738;9.228;2023-09-19T10:50:43;19.40;1.00
336;DHT22;156;48.738;9.228;2023-09-19T10:53:12;19.50;1.00
336;DHT22;156;48.738;9.228;2023-09-19T10:55:41;19.40;1.00
336;DHT22;156;48.738;9.228;2023-09-19T10:58:25;19.40;1.00
336;DHT22;156;48.738;9.228;2023-09-19T11:00:55;19.60;1.00
336;DHT22;156;48.738;9.228;2023-09-19T11:03:27;19.90;1.00
336;DHT22;156;48.738;9.228;2023-09-19T11:06:04;20.00;1.00
336;DHT22;156;48.738;9.228;2023-09-19T11:08:54;20.20;1.00
336;DHT22;156;48.738;9.228;2023-09-19T11:11:48;20.10;1.00
336;DHT22;156;48.738;9.228;2023-09-19T11:14:41;19.50;1.00
336;DHT22;156;48.738;9.228;2023-09-19T11:17:31;19.40;1.00
336;DHT22;156;48.738;9.228;2023-09-19T11:20:21;19.50;1.00
336;DHT22;156;48.738;9.228;2023-09-19T11:23:28;19.50;1.00
336;DHT22;156;48.738;9.228;2023-09-19T11:25:56;19.50;1.00
336;DHT22;156;48.738;9.228;2023-09-19T11:28:35;19.30;1.00
336;DHT22;156;48.738;9.228;2023-09-19T11:34:42;19.70;1.00
336;DHT22;156;48.738;9.228;2023-09-19T11:40:28;19.70;1.00
336;DHT22;156;48.738;9.228;2023-09-19T11:42:56;19.80;1.00
336;DHT22;156;48.738;9.228;2023-09-19T11:48:28;19.70;1.00
336;DHT22;156;48.738;9.228;2023-09-19T11:50:57;19.80;1.00
336;DHT22;156;48.738;9.228;2023-09-19T11:53:31;19.80;1.00
336;DHT22;156;48.738;9.228;2023-09-19T11:56:04;20.00;1.00
336;DHT22;156;48.738;9.228;2023-09-19T11:58:37;20.20;1.00
336;DHT22;156;48.738;9.228;2023-09-19T12:01:05;20.30;1.00
336;DHT22;156;48.738;9.228;2023-09-19T12:03:42;20.20;1.00
336;DHT22;156;48.738;9.228;2023-09-19T12:06:15;20.50;1.00
336;DHT22;156;48.738;9.228;2023-09-19T12:09:01;20.20;1.00
336;DHT22;156;48.738;9.228;2023-09-19T12:14:41;20.10;1.00
336;DHT22;156;48.738;9.228;2023-09-19T12:17:22;20.40;1.00
336;DHT22;156;48.738;9.228;2023-09-19T12:19:52;20.40;1.00
336;DHT22;156;48.738;9.228;2023-09-19T12:22:25;20.30;1.00
336;DHT22;156;48.738;9.228;2023-09-19T12:25:06;20.40;1.00
336;DHT22;156;48.738;9.228;2023-09-19T12:28:02;20.90;1.00
336;DHT22;156;48.738;9.228;2023-09-19T12:30:57;21.10;1.00
336;DHT22;156;48.738;9.228;2023-09-19T12:36:37;21.80;1.00
336;DHT22;156;48.738;9.228;2023-09-19T12:39:08;22.20;1.00
336;DHT22;156;48.738;9.228;2023-09-19T12:41:36;21.70;99.90
336;DHT22;156;48.738;9.228;2023-09-19T12:44:04;21.40;99.90
336;DHT22;156;48.738;9.228;2023-09-19T12:46:34;21.60;1.00
336;DHT22;156;48.738;9.228;2023-09-19T12:49:17;21.30;1.00
336;DHT22;156;48.738;9.228;2023-09-19T12:51:46;21.20;1.00
336;DHT22;156;48.738;9.228;2023-09-19T12:54:15;21.40;99.90
336;DHT22;156;48.738;9.228;2023-09-19T12:56:44;21.80;99.90
336;DHT22;156;48.738;9.228;2023-09-19T12:59:15;22.10;99.90
336;DHT22;156;48.738;9.228;2023-09-19T13:01:44;22.40;99.90
336;DHT22;156;48.738;9.228;2023-09-19T13:04:16;23.50;99.90
336;DHT22;156;48.738;9.228;2023-09-19T13:06:51;23.20;99.90
336;DHT22;156;48.738;9.228;2023-09-19T13:09:22;23.40;99.90
336;DHT22;156;48.738;9.228;2023-09-19T13:11:57;23.70;99.90
336;DHT22;156;48.738;9.228;2023-09-19T13:14:41;24.30;99.90
336;DHT22;156;48.738;9.228;2023-09-19T13:17:23;22.70;99.90
336;DHT22;156;48.738;9.228;2023-09-19T13:19:58;23.60;99.90
336;DHT22;156;48.738;9.228;2023-09-19T13:22:42;23.10;99.90
336;DHT22;156;48.738;9.228;2023-09-19T13:25:19;23.10;99.90
336;DHT22;156;48.738;9.228;2023-09-19T13:27:48;23.70;99.90
336;DHT22;156;48.738;9.228;2023-09-19T13:30:33;23.60;99.90
336;DHT22;156;48.738;9.228;2023-09-19T13:33:13;23.70;99.90
336;DHT22;156;48.738;9.228;2023-09-19T13:35:52;23.60;99.90
336;DHT22;156;48.738;9.228;2023-09-19T13:38:21;23.40;99.90
336;DHT22;156;48.738;9.228;2023-09-19T13:40:52;23.10;99.90
336;DHT22;156;48.738;9.228;2023-09-19T13:43:32;23.40;99.90
336;DHT22;156;48.738;9.228;2023-09-19T13:45:59;22.80;99.90
336;DHT22;156;48.738;9.228;2023-09-19T13:48:29;23.60;99.90
336;DHT22;156;48.738;9.228;2023-09-19T13:51:00;23.50;99.90
336;DHT22;156;48.738;9.228;2023-09-19T13:53:29;23.00;99.90
336;DHT22;156;48.738;9.228;2023-09-19T13:56:04;23.40;99.90
336;DHT22;156;48.738;9.228;2023-09-19T13:58:36;23.80;99.90
336;DHT22;156;48.738;9.228;2023-09-19T14:01:03;23.70;99.90
336;DHT22;156;48.738;9.228;2023-09-19T14:03:30;23.80;99.90
336;DHT22;156;48.738;9.228;2023-09-19T14:06:02;23.90;99.90
336;DHT22;156;48.738;9.228;2023-09-19T14:08:29;24.40;99.90
336;DHT22;156;48.738;9.228;2023-09-19T14:10:56;23.90;99.90
336;DHT22;156;48.738;9.228;2023-09-19T14:13:34;24.10;99.90
336;DHT22;156;48.738;9.228;2023-09-19T14:16:03;24.50;99.90
336;DHT22;156;48.738;9.228;2023-09-19T14:18:37;24.60;99.90
336;DHT22;156;48.738;9.228;2023-09-19T14:21:05;24.60;99.90
336;DHT22;156;48.738;9.228;2023-09-19T14:23:36;24.00;99.90
336;DHT22;156;48.738;9.228;2023-09-19T14:26:08;24.20;99.90
336;DHT22;156;48.738;9.228;2023-09-19T14:28:39;24.00;99.90
336;DHT22;156;48.738;9.228;2023-09-19T14:31:06;23.20;99.90
336;DHT22;156;48.738;9.228;2023-09-19T14:33:33;23.10;99.90
336;DHT22;156;48.738;9.228;2023-09-19T14:36:03;23.30;99.90
336;DHT22;156;48.738;9.228;2023-09-19T14:38:34;23.30;99.90
336;DHT22;156;48.738;9.228;2023-09-19T14:41:02;23.20;99.90
336;DHT22;156;48.738;9.228;2023-09-19T14:43:31;23.20;99.90
336;DHT22;156;48.738;9.228;2023-09-19T14:46:02;23.10;99.90
336;DHT22;156;48.738;9.228;2023-09-19T14:48:29;23.30;99.90
336;DHT22;156;48.738;9.228;2023-09-19T14:51:01;23.60;99.90
336;DHT22;156;48.738;9.228;2023-09-19T14:53:29;23.40;99.90
336;DHT22;156;48.738;9.228;2023-09-19T14:55:56;23.40;99.90
336;DHT22;156;48.738;9.228;2023-09-19T14:58:23;23.30;99.90
336;DHT22;156;48.738;9.228;2023-09-19T15:00:51;23.70;99.90
336;DHT22;156;48.738;9.228;2023-09-19T15:03:20;23.50;99.90
336;DHT22;156;48.738;9.228;2023-09-19T15:05:47;23.60;99.90
336;DHT22;156;48.738;9.228;2023-09-19T15:08:15;23.20;99.90
336;DHT22;156;48.738;9.228;2023-09-19T15:10:49;23.20;99.90
336;DHT22;156;48.738;9.228;2023-09-19T15:13:18;23.20;99.90
336;DHT22;156;48.738;9.228;2023-09-19T15:15:46;23.30;99.90
336;DHT22;156;48.738;9.228;2023-09-19T15:18:13;22.90;99.90
336;DHT22;156;48.738;9.228;2023-09-19T15:20:44;22.80;99.90
336;DHT22;156;48.738;9.228;2023-09-19T15:23:11;23.20;99.90
336;DHT22;156;48.738;9.228;2023-09-19T15:25:47;23.30;99.90
336;DHT22;156;48.738;9.228;2023-09-19T15:28:14;23.60;99.90
336;DHT22;156;48.738;9.228;2023-09-19T15:30:43;23.50;99.90
336;DHT22;156;48.738;9.228;2023-09-19T15:33:12;23.20;99.90
336;DHT22;156;48.738;9.228;2023-09-19T15:35:39;23.20;99.90
336;DHT22;156;48.738;9.228;2023-09-19T15:38:09;22.60;99.90
336;DHT22;156;48.738;9.228;2023-09-19T15:40:46;22.30;99.90
336;DHT22;156;48.738;9.228;2023-09-19T15:43:15;22.20;99.90
336;DHT22;156;48.738;9.228;2023-09-19T15:45:42;22.30;99.90
336;DHT22;156;48.738;9.228;2023-09-19T15:48:14;22.60;99.90
336;DHT22;156;48.738;9.228;2023-09-19T15:50:40;22.30;99.90
336;DHT22;156;48.738;9.228;2023-09-19T15:55:49;22.70;99.90
336;DHT22;156;48.738;9.228;2023-09-19T15:59:01;22.90;99.90
336;DHT22;156;48.738;9.228;2023-09-19T16:01:47;23.00;99.90
336;DHT22;156;48.738;9.228;2023-09-19T16:04:23;22.80;99.90
336;DHT22;156;48.738;9.228;2023-09-19T16:07:14;22.60;99.90
336;DHT22;156;48.738;9.228;2023-09-19T16:13:22;22.50;99.90
336;DHT22;156;48.738;9.228;2023-09-19T16:16:14;22.10;99.90
336;DHT22;156;48.738;9.228;2023-09-19T16:19:40;22.10;99.90
336;DHT22;156;48.738;9.228;2023-09-19T16:22:47;22.00;99.90
336;DHT22;156;48.738;9.228;2023-09-19T16:29:38;22.40;99.90
336;DHT22;156;48.738;9.228;2023-09-19T16:36:08;22.40;99.90
336;DHT22;156;48.738;9.228;2023-09-19T16:38:38;22.10;99.90
336;DHT22;156;48.738;9.228;2023-09-19T16:41:08;21.90;99.90
336;DHT22;156;48.738;9.228;2023-09-19T16:44:03;22.10;99.90
336;DHT22;156;48.738;9.228;2023-09-19T16:46:58;22.20;99.90
336;DHT22;156;48.738;9.228;2023-09-19T16:50:30;22.30;99.90
336;DHT22;156;48.738;9.228;2023-09-19T16:53:30;22.00;99.90
336;DHT22;156;48.738;9.228;2023-09-19T16:56:16;21.80;99.90
336;DHT22;156;48.738;9.228;2023-09-19T16:59:11;21.50;99.90
336;DHT22;156;48.738;9.228;2023-09-19T17:01:39;21.30;99.90
336;DHT22;156;48.738;9.228;2023-09-19T17:11:19;21.80;99.90
336;DHT22;156;48.738;9.228;2023-09-19T17:14:47;22.40;99.90
336;DHT22;156;48.738;9.228;2023-09-19T17:17:26;22.50;99.90
336;DHT22;156;48.738;9.228;2023-09-19T17:20:20;22.10;99.90
336;DHT22;156;48.738;9.228;2023-09-19T17:30:06;21.10;99.90
336;DHT22;156;48.738;9.228;2023-09-19T17:32:56;20.70;99.90
336;DHT22;156;48.738;9.228;2023-09-19T17:35:41;20.60;99.90
336;DHT22;156;48.738;9.228;2023-09-19T17:38:30;20.30;99.90
336;DHT22;156;48.738;9.228;2023-09-19T17:41:07;20.30;99.90
336;DHT22;156;48.738;9.228;2023-09-19T17:46:10;20.20;1.00
336;DHT22;156;48.738;9.228;2023-09-19T17:46:53;20.10;1.00
336;DHT22;156;48.738;9.228;2023-09-19T17:49:23;20.00;1.00
336;DHT22;156;48.738;9.228;2023-09-19T17:52:14;19.90;1.00
336;DHT22;156;48.738;9.228;2023-09-19T17:54:50;19.80;1.00
336;DHT22;156;48.738;9.228;2023-09-19T17:57:20;19.70;1.00
336;DHT22;156;48.738;9.228;2023-09-19T17:59:53;19.70;1.00
336;DHT22;156;48.738;9.228;2023-09-19T18:02:30;19.70;1.00
336;DHT22;156;48.738;9.228;2023-09-19T18:08:02;19.60;1.00
336;DHT22;156;48.738;9.228;2023-09-19T18:10:40;19.50;1.00
336;DHT22;156;48.738;9.228;2023-09-19T18:13:11;19.50;1.00
336;DHT22;156;48.738;9.228;2023-09-19T18:15:40;19.50;1.00
336;DHT22;156;48.738;9.228;2023-09-19T18:18:08;19.40;1.00
336;DHT22;156;48.738;9.228;2023-09-19T18:20:37;19.30;1.00
336;DHT22;156;48.738;9.228;2023-09-19T18:23:05;19.20;1.00
336;DHT22;156;48.738;9.228;2023-09-19T18:25:33;19.10;1.00
336;DHT22;156;48.738;9.228;2023-09-19T18:28:02;19.00;1.00
336;DHT22;156;48.738;9.228;2023-09-19T18:30:29;18.90;1.00
336;DHT22;156;48.738;9.228;2023-09-19T18:32:56;18.90;1.00
336;DHT22;156;48.738;9.228;2023-09-19T18:35:23;18.80;1.00
336;DHT22;156;48.738;9.228;2023-09-19T18:37:53;18.80;1.00
336;DHT22;156;48.738;9.228;2023-09-19T18:40:25;18.80;1.00
336;DHT22;156;48.738;9.228;2023-09-19T18:42:59;18.80;1.00
336;DHT22;156;48.738;9.228;2023-09-19T18:45:34;18.70;1.00
336;DHT22;156;48.738;9.228;2023-09-19T18:48:39;18.60;1.00
336;DHT22;156;48.738;9.228;2023-09-19T18:51:33;18.50;1.00
336;DHT22;156;48.738;9.228;2023-09-19T18:54:07;18.60;1.00
336;DHT22;156;48.738;9.228;2023-09-19T18:56:49;18.60;1.00
336;DHT22;156;48.738;9.228;2023-09-19T18:59:26;18.50;1.00
336;DHT22;156;48.738;9.228;2023-09-19T19:01:58;18.50;1.00
336;DHT22;156;48.738;9.228;2023-09-19T19:04:42;18.40;1.00
336;DHT22;156;48.738;9.228;2023-09-19T19:07:26;18.30;1.00
336;DHT22;156;48.738;9.228;2023-09-19T19:16:51;18.20;1.00
336;DHT22;156;48.738;9.228;2023-09-19T19:23:06;18.10;1.00
336;DHT22;156;48.738;9.228;2023-09-19T19:25:55;18.10;1.00
336;DHT22;156;48.738;9.228;2023-09-19T19:28:44;18.10;1.00